sensor_id;sensor_type;location;lat;lon;timestamp;P1;durP1;ratioP1;P2;durP2;ratioP2
5085;SDS011;4715;51.660;7.082;2022-12-26T00:01:49;7.73;;;6.80;;
5085;SDS011;4715;51.660;7.082;2022-12-26T00:04:12;7.27;;;6.17;;
5085;SDS011;4715;51.660;7.082;2022-12-26T00:06:37;7.23;;;6.20;;
5085;SDS011;4715;51.660;7.082;2022-12-26T00:08:59;9.67;;;7.07;;
5085;SDS011;4715;51.660;7.082;2022-12-26T00:11:23;8.20;;;7.40;;
5085;SDS011;4715;51.660;7.082;2022-12-26T00:13:46;7.30;;;6.70;;
5085;SDS011;4715;51.660;7.082;2022-12-26T00:16:08;11.13;;;6.90;;
5085;SDS011;4715;51.660;7.082;2022-12-26T00:18:33;8.63;;;7.67;;
5085;SDS011;4715;51.660;7.082;2022-12-26T00:20:55;7.00;;;6.40;;
5085;SDS011;4715;51.660;7.082;2022-12-26T00:23:18;9.40;;;7.00;;
5085;SDS011;4715;51.660;7.082;2022-12-26T00:25:40;12.27;;;7.43;;
5085;SDS011;4715;51.660;7.082;2022-12-26T00:28:02;8.57;;;6.40;;
5085;SDS011;4715;51.660;7.082;2022-12-26T00:30:24;7.70;;;6.20;;
5085;SDS011;4715;51.660;7.082;2022-12-26T00:32:46;8.27;;;6.77;;
5085;SDS011;4715;51.660;7.082;2022-12-26T00:35:08;8.37;;;6.90;;
5085;SDS011;4715;51.660;7.082;2022-12-26T00:37:30;9.73;;;7.93;;
5085;SDS011;4715;51.660;7.082;2022-12-26T00:39:53;10.10;;;7.67;;
5085;SDS011;4715;51.660;7.082;2022-12-26T00:42:18;10.37;;;7.77;;
5085;SDS011;4715;51.660;7.082;2022-12-26T00:44:40;9.40;;;7.27;;
5085;SDS011;4715;51.660;7.082;2022-12-26T00:47:02;10.93;;;8.50;;
5085;SDS011;4715;51.660;7.082;2022-12-26T00:49:24;9.50;;;8.50;;
5085;SDS011;4715;51.660;7.082;2022-12-26T00:51:46;10.50;;;8.30;;
5085;SDS011;4715;51.660;7.082;2022-12-26T00:54:08;8.83;;;7.93;;
5085;SDS011;4715;51.660;7.082;2022-12-26T00:56:31;7.93;;;7.13;;
5085;SDS011;4715;51.660;7.082;2022-12-26T00:58:53;9.07;;;7.40;;
5085;SDS011;4715;51.660;7.082;2022-12-26T01:01:15;8.07;;;6.67;;
5085;SDS011;4715;51.660;7.082;2022-12-26T01:03:39;7.47;;;6.70;;
5085;SDS011;4715;51.660;7.082;2022-12-26T01:06:07;7.90;;;7.07;;
5085;SDS011;4715;51.660;7.082;2022-12-26T01:08:29;9.40;;;8.10;;
5085;SDS011;4715;51.660;7.082;2022-12-26T01:10:51;9.40;;;7.40;;
5085;SDS011;4715;51.660;7.082;2022-12-26T01:13:14;7.57;;;6.80;;
5085;SDS011;4715;51.660;7.082;2022-12-26T01:15:36;9.80;;;7.13;;
5085;SDS011;4715;51.660;7.082;2022-12-26T01:17:59;9.10;;;7.47;;
5085;SDS011;4715;51.660;7.082;2022-12-26T01:20:21;8.23;;;7.50;;
5085;SDS011;4715;51.660;7.082;2022-12-26T01:22:43;10.53;;;8.43;;
5085;SDS011;4715;51.660;7.082;2022-12-26T01:25:05;8.23;;;7.40;;
5085;SDS011;4715;51.660;7.082;2022-12-26T01:27:28;11.37;;;9.00;;
5085;SDS011;4715;51.660;7.082;2022-12-26T01:29:52;9.00;;;8.10;;
5085;SDS011;4715;51.660;7.082;2022-12-26T01:32:14;13.97;;;10.20;;
5085;SDS011;4715;51.660;7.082;2022-12-26T01:34:36;10.47;;;9.40;;
5085;SDS011;4715;51.660;7.082;2022-12-26T01:36:58;10.67;;;9.53;;
5085;SDS011;4715;51.660;7.082;2022-12-26T01:39:20;15.70;;;11.67;;
5085;SDS011;4715;51.660;7.082;2022-12-26T01:41:42;16.07;;;12.40;;
5085;SDS011;4715;51.660;7.082;2022-12-26T01:44:04;17.57;;;12.97;;
5085;SDS011;4715;51.660;7.082;2022-12-26T01:46:48;17.07;;;12.57;;
5085;SDS011;4715;51.660;7.082;2022-12-26T01:49:12;14.53;;;12.30;;
5085;SDS011;4715;51.660;7.082;2022-12-26T01:51:39;15.80;;;11.20;;
5085;SDS011;4715;51.660;7.082;2022-12-26T01:54:04;17.17;;;12.00;;
5085;SDS011;4715;51.660;7.082;2022-12-26T01:56:30;21.60;;;14.17;;
5085;SDS011;4715;51.660;7.082;2022-12-26T01:58:56;18.30;;;12.73;;
5085;SDS011;4715;51.660;7.082;2022-12-26T02:01:23;16.70;;;12.67;;
5085;SDS011;4715;51.660;7.082;2022-12-26T02:03:50;14.23;;;11.93;;
5085;SDS011;4715;51.660;7.082;2022-12-26T02:06:29;18.80;;;12.40;;
5085;SDS011;4715;51.660;7.082;2022-12-26T02:08:51;13.77;;;11.27;;
5085;SDS011;4715;51.660;7.082;2022-12-26T02:11:15;13.00;;;10.40;;
5085;SDS011;4715;51.660;7.082;2022-12-26T02:13:40;12.30;;;10.57;;
5085;SDS011;4715;51.660;7.082;2022-12-26T02:16:02;11.90;;;9.70;;
5085;SDS011;4715;51.660;7.082;2022-12-26T02:18:25;12.40;;;9.70;;
5085;SDS011;4715;51.660;7.082;2022-12-26T02:20:52;11.10;;;8.97;;
5085;SDS011;4715;51.660;7.082;2022-12-26T02:23:28;14.00;;;9.83;;
5085;SDS011;4715;51.660;7.082;2022-12-26T02:26:33;12.73;;;10.40;;
5085;SDS011;4715;51.660;7.082;2022-12-26T02:32:18;9.70;;;8.70;;
5085;SDS011;4715;51.660;7.082;2022-12-26T02:34:51;8.97;;;8.07;;
5085;SDS011;4715;51.660;7.082;2022-12-26T02:37:21;8.10;;;7.30;;
5085;SDS011;4715;51.660;7.082;2022-12-26T02:39:54;12.03;;;9.37;;
5085;SDS011;4715;51.660;7.082;2022-12-26T02:42:26;11.07;;;8.27;;
5085;SDS011;4715;51.660;7.082;2022-12-26T02:44:56;13.50;;;8.27;;
5085;SDS011;4715;51.660;7.082;2022-12-26T02:47:47;8.57;;;7.67;;
5085;SDS011;4715;51.660;7.082;2022-12-26T02:50:17;7.97;;;6.70;;
5085;SDS011;4715;51.660;7.082;2022-12-26T02:53:06;7.37;;;6.40;;
5085;SDS011;4715;51.660;7.082;2022-12-26T02:55:51;7.77;;;7.07;;
5085;SDS011;4715;51.660;7.082;2022-12-26T02:58:37;7.40;;;6.70;;
5085;SDS011;4715;51.660;7.082;2022-12-26T03:01:22;7.77;;;6.97;;
5085;SDS011;4715;51.660;7.082;2022-12-26T03:04:07;8.00;;;7.20;;
5085;SDS011;4715;51.660;7.082;2022-12-26T03:06:52;7.53;;;6.73;;
5085;SDS011;4715;51.660;7.082;2022-12-26T03:09:34;8.53;;;6.90;;
5085;SDS011;4715;51.660;7.082;2022-12-26T03:12:22;7.30;;;6.60;;
5085;SDS011;4715;51.660;7.082;2022-12-26T03:15:30;8.13;;;6.37;;
5085;SDS011;4715;51.660;7.082;2022-12-26T03:18:14;7.53;;;6.80;;
5085;SDS011;4715;51.660;7.082;2022-12-26T03:20:39;7.27;;;6.57;;
5085;SDS011;4715;51.660;7.082;2022-12-26T03:23:02;6.20;;;5.70;;
5085;SDS011;4715;51.660;7.082;2022-12-26T03:25:29;7.90;;;7.10;;
5085;SDS011;4715;51.660;7.082;2022-12-26T03:28:16;9.90;;;6.33;;
5085;SDS011;4715;51.660;7.082;2022-12-26T03:30:38;7.17;;;6.47;;
5085;SDS011;4715;51.660;7.082;2022-12-26T03:33:08;7.17;;;6.47;;
5085;SDS011;4715;51.660;7.082;2022-12-26T03:35:51;7.47;;;6.77;;
5085;SDS011;4715;51.660;7.082;2022-12-26T03:38:14;9.10;;;6.50;;
5085;SDS011;4715;51.660;7.082;2022-12-26T03:40:39;7.07;;;6.20;;
5085;SDS011;4715;51.660;7.082;2022-12-26T03:43:32;8.17;;;7.37;;
5085;SDS011;4715;51.660;7.082;2022-12-26T03:46:21;7.87;;;6.67;;
5085;SDS011;4715;51.660;7.082;2022-12-26T03:49:10;8.20;;;6.90;;
5085;SDS011;4715;51.660;7.082;2022-12-26T03:51:57;9.30;;;7.30;;
5085;SDS011;4715;51.660;7.082;2022-12-26T03:54:40;7.13;;;6.33;;
5085;SDS011;4715;51.660;7.082;2022-12-26T03:57:26;8.00;;;6.90;;
5085;SDS011;4715;51.660;7.082;2022-12-26T04:00:13;12.07;;;7.70;;
5085;SDS011;4715;51.660;7.082;2022-12-26T04:02:53;8.10;;;7.30;;
5085;SDS011;4715;51.660;7.082;2022-12-26T04:05:37;8.27;;;7.20;;
5085;SDS011;4715;51.660;7.082;2022-12-26T04:08:22;8.37;;;6.93;;
5085;SDS011;4715;51.660;7.082;2022-12-26T04:11:09;7.73;;;7.03;;
5085;SDS011;4715;51.660;7.082;2022-12-26T04:13:54;8.40;;;7.60;;
5085;SDS011;4715;51.660;7.082;2022-12-26T04:16:41;9.00;;;7.90;;
5085;SDS011;4715;51.660;7.082;2022-12-26T04:19:29;7.73;;;7.13;;
5085;SDS011;4715;51.660;7.082;2022-12-26T04:22:02;7.30;;;6.60;;
5085;SDS011;4715;51.660;7.082;2022-12-26T04:24:49;13.37;;;9.57;;
5085;SDS011;4715;51.660;7.082;2022-12-26T04:27:34;9.20;;;8.30;;
5085;SDS011;4715;51.660;7.082;2022-12-26T04:30:13;7.03;;;6.40;;
5085;SDS011;4715;51.660;7.082;2022-12-26T04:32:53;8.00;;;7.20;;
5085;SDS011;4715;51.660;7.082;2022-12-26T04:35:38;10.63;;;7.60;;
5085;SDS011;4715;51.660;7.082;2022-12-26T04:38:26;9.47;;;7.40;;
5085;SDS011;4715;51.660;7.082;2022-12-26T04:41:09;7.80;;;7.00;;
5085;SDS011;4715;51.660;7.082;2022-12-26T04:43:49;8.27;;;7.47;;
5085;SDS011;4715;51.660;7.082;2022-12-26T04:46:26;11.63;;;6.60;;
5085;SDS011;4715;51.660;7.082;2022-12-26T04:48:50;7.53;;;6.40;;
5085;SDS011;4715;51.660;7.082;2022-12-26T04:51:32;7.97;;;6.90;;
5085;SDS011;4715;51.660;7.082;2022-12-26T04:53:54;5.47;;;5.07;;
5085;SDS011;4715;51.660;7.082;2022-12-26T04:56:17;6.43;;;5.90;;
5085;SDS011;4715;51.660;7.082;2022-12-26T04:58:39;5.17;;;4.77;;
5085;SDS011;4715;51.660;7.082;2022-12-26T05:01:00;6.70;;;6.10;;
5085;SDS011;4715;51.660;7.082;2022-12-26T05:03:36;6.20;;;5.70;;
5085;SDS011;4715;51.660;7.082;2022-12-26T05:06:15;5.23;;;4.90;;
5085;SDS011;4715;51.660;7.082;2022-12-26T05:08:55;5.10;;;4.80;;
5085;SDS011;4715;51.660;7.082;2022-12-26T05:11:38;5.20;;;4.80;;
5085;SDS011;4715;51.660;7.082;2022-12-26T05:14:00;5.33;;;4.90;;
5085;SDS011;4715;51.660;7.082;2022-12-26T05:16:22;5.03;;;4.63;;
5085;SDS011;4715;51.660;7.082;2022-12-26T05:19:02;5.13;;;4.80;;
5085;SDS011;4715;51.660;7.082;2022-12-26T05:21:41;5.17;;;4.77;;
5085;SDS011;4715;51.660;7.082;2022-12-26T05:24:20;4.57;;;4.17;;
5085;SDS011;4715;51.660;7.082;2022-12-26T05:27:02;5.67;;;5.27;;
5085;SDS011;4715;51.660;7.082;2022-12-26T05:29:41;5.03;;;4.63;;
5085;SDS011;4715;51.660;7.082;2022-12-26T05:32:03;5.60;;;5.10;;
5085;SDS011;4715;51.660;7.082;2022-12-26T05:34:25;5.20;;;4.73;;
5085;SDS011;4715;51.660;7.082;2022-12-26T05:36:48;5.30;;;4.90;;
5085;SDS011;4715;51.660;7.082;2022-12-26T05:39:12;5.53;;;5.17;;
5085;SDS011;4715;51.660;7.082;2022-12-26T05:41:34;5.30;;;4.90;;
5085;SDS011;4715;51.660;7.082;2022-12-26T05:43:57;4.60;;;4.20;;
5085;SDS011;4715;51.660;7.082;2022-12-26T05:46:19;5.17;;;4.77;;
5085;SDS011;4715;51.660;7.082;2022-12-26T05:48:41;5.13;;;4.80;;
5085;SDS011;4715;51.660;7.082;2022-12-26T05:51:03;5.17;;;4.77;;
5085;SDS011;4715;51.660;7.082;2022-12-26T05:53:25;4.83;;;4.50;;
5085;SDS011;4715;51.660;7.082;2022-12-26T05:55:47;5.80;;;5.40;;
5085;SDS011;4715;51.660;7.082;2022-12-26T05:58:08;5.50;;;5.00;;
5085;SDS011;4715;51.660;7.082;2022-12-26T06:00:31;4.47;;;4.17;;
5085;SDS011;4715;51.660;7.082;2022-12-26T06:02:53;4.93;;;4.63;;
5085;SDS011;4715;51.660;7.082;2022-12-26T06:05:15;5.30;;;5.00;;
5085;SDS011;4715;51.660;7.082;2022-12-26T06:07:38;4.90;;;4.50;;
5085;SDS011;4715;51.660;7.082;2022-12-26T06:10:00;5.30;;;4.83;;
5085;SDS011;4715;51.660;7.082;2022-12-26T06:12:22;6.00;;;5.50;;
5085;SDS011;4715;51.660;7.082;2022-12-26T06:14:44;5.90;;;5.30;;
5085;SDS011;4715;51.660;7.082;2022-12-26T06:17:07;6.73;;;6.03;;
5085;SDS011;4715;51.660;7.082;2022-12-26T06:19:29;6.77;;;6.17;;
5085;SDS011;4715;51.660;7.082;2022-12-26T06:21:51;6.80;;;6.20;;
5085;SDS011;4715;51.660;7.082;2022-12-26T06:24:13;7.70;;;6.57;;
5085;SDS011;4715;51.660;7.082;2022-12-26T06:26:34;10.03;;;7.90;;
5085;SDS011;4715;51.660;7.082;2022-12-26T06:28:56;12.10;;;9.07;;
5085;SDS011;4715;51.660;7.082;2022-12-26T06:31:19;11.20;;;9.47;;
5085;SDS011;4715;51.660;7.082;2022-12-26T06:33:43;18.13;;;11.67;;
5085;SDS011;4715;51.660;7.082;2022-12-26T06:36:06;14.00;;;12.47;;
5085;SDS011;4715;51.660;7.082;2022-12-26T06:38:29;15.03;;;11.30;;
5085;SDS011;4715;51.660;7.082;2022-12-26T06:40:50;14.07;;;10.47;;
5085;SDS011;4715;51.660;7.082;2022-12-26T06:43:12;14.50;;;10.40;;
5085;SDS011;4715;51.660;7.082;2022-12-26T06:45:34;11.00;;;9.30;;
5085;SDS011;4715;51.660;7.082;2022-12-26T06:47:56;9.90;;;8.17;;
5085;SDS011;4715;51.660;7.082;2022-12-26T06:50:19;9.47;;;8.57;;
5085;SDS011;4715;51.660;7.082;2022-12-26T06:52:42;12.27;;;9.23;;
5085;SDS011;4715;51.660;7.082;2022-12-26T06:55:04;10.23;;;8.60;;
5085;SDS011;4715;51.660;7.082;2022-12-26T06:57:26;10.80;;;8.50;;
5085;SDS011;4715;51.660;7.082;2022-12-26T06:59:48;9.70;;;7.70;;
5085;SDS011;4715;51.660;7.082;2022-12-26T07:02:10;9.87;;;8.00;;
5085;SDS011;4715;51.660;7.082;2022-12-26T07:04:32;9.57;;;7.30;;
5085;SDS011;4715;51.660;7.082;2022-12-26T07:06:55;9.43;;;7.10;;
5085;SDS011;4715;51.660;7.082;2022-12-26T07:09:19;9.37;;;7.10;;
5085;SDS011;4715;51.660;7.082;2022-12-26T07:11:42;7.57;;;6.83;;
5085;SDS011;4715;51.660;7.082;2022-12-26T07:14:05;7.53;;;6.40;;
5085;SDS011;4715;51.660;7.082;2022-12-26T07:16:28;8.67;;;7.73;;
5085;SDS011;4715;51.660;7.082;2022-12-26T07:18:50;8.80;;;6.40;;
5085;SDS011;4715;51.660;7.082;2022-12-26T07:21:14;7.90;;;7.00;;
5085;SDS011;4715;51.660;7.082;2022-12-26T07:23:37;10.57;;;6.50;;
5085;SDS011;4715;51.660;7.082;2022-12-26T07:25:59;7.90;;;7.07;;
5085;SDS011;4715;51.660;7.082;2022-12-26T07:28:21;7.00;;;6.30;;
5085;SDS011;4715;51.660;7.082;2022-12-26T07:30:45;6.97;;;6.37;;
5085;SDS011;4715;51.660;7.082;2022-12-26T07:33:07;7.70;;;6.60;;
5085;SDS011;4715;51.660;7.082;2022-12-26T07:35:29;8.13;;;6.40;;
5085;SDS011;4715;51.660;7.082;2022-12-26T07:37:51;9.60;;;7.00;;
5085;SDS011;4715;51.660;7.082;2022-12-26T07:40:14;8.00;;;5.83;;
5085;SDS011;4715;51.660;7.082;2022-12-26T07:42:36;6.30;;;5.70;;
5085;SDS011;4715;51.660;7.082;2022-12-26T07:44:58;7.27;;;6.47;;
5085;SDS011;4715;51.660;7.082;2022-12-26T07:47:20;6.47;;;5.93;;
5085;SDS011;4715;51.660;7.082;2022-12-26T07:49:41;5.70;;;5.20;;
5085;SDS011;4715;51.660;7.082;2022-12-26T07:52:03;9.60;;;6.40;;
5085;SDS011;4715;51.660;7.082;2022-12-26T07:54:25;8.67;;;5.70;;
5085;SDS011;4715;51.660;7.082;2022-12-26T07:56:50;6.10;;;5.10;;
5085;SDS011;4715;51.660;7.082;2022-12-26T07:59:12;5.67;;;5.17;;
5085;SDS011;4715;51.660;7.082;2022-12-26T08:01:35;7.03;;;5.13;;
5085;SDS011;4715;51.660;7.082;2022-12-26T08:03:57;4.63;;;4.33;;
5085;SDS011;4715;51.660;7.082;2022-12-26T08:06:19;9.67;;;4.73;;
5085;SDS011;4715;51.660;7.082;2022-12-26T08:08:41;5.90;;;4.10;;
5085;SDS011;4715;51.660;7.082;2022-12-26T08:11:04;3.83;;;3.47;;
5085;SDS011;4715;51.660;7.082;2022-12-26T08:13:29;3.37;;;3.13;;
5085;SDS011;4715;51.660;7.082;2022-12-26T08:15:51;3.30;;;3.10;;
5085;SDS011;4715;51.660;7.082;2022-12-26T08:18:13;4.80;;;3.07;;
5085;SDS011;4715;51.660;7.082;2022-12-26T08:20:35;6.43;;;3.40;;
5085;SDS011;4715;51.660;7.082;2022-12-26T08:22:57;3.40;;;3.10;;
5085;SDS011;4715;51.660;7.082;2022-12-26T08:25:19;3.47;;;3.17;;
5085;SDS011;4715;51.660;7.082;2022-12-26T08:27:41;4.90;;;3.10;;
5085;SDS011;4715;51.660;7.082;2022-12-26T08:30:05;2.70;;;2.60;;
5085;SDS011;4715;51.660;7.082;2022-12-26T08:32:28;3.70;;;2.80;;
5085;SDS011;4715;51.660;7.082;2022-12-26T08:34:50;2.63;;;2.43;;
5085;SDS011;4715;51.660;7.082;2022-12-26T08:37:11;4.10;;;2.77;;
5085;SDS011;4715;51.660;7.082;2022-12-26T08:39:33;10.50;;;2.70;;
5085;SDS011;4715;51.660;7.082;2022-12-26T08:41:55;2.27;;;2.17;;
5085;SDS011;4715;51.660;7.082;2022-12-26T08:44:17;7.80;;;3.10;;
5085;SDS011;4715;51.660;7.082;2022-12-26T08:46:40;2.80;;;2.40;;
5085;SDS011;4715;51.660;7.082;2022-12-26T08:49:02;2.53;;;2.33;;
5085;SDS011;4715;51.660;7.082;2022-12-26T08:51:24;2.50;;;2.30;;
5085;SDS011;4715;51.660;7.082;2022-12-26T08:53:46;4.20;;;2.83;;
5085;SDS011;4715;51.660;7.082;2022-12-26T08:56:09;3.00;;;2.77;;
5085;SDS011;4715;51.660;7.082;2022-12-26T08:58:33;2.23;;;2.03;;
5085;SDS011;4715;51.660;7.082;2022-12-26T09:01:00;3.00;;;2.80;;
5085;SDS011;4715;51.660;7.082;2022-12-26T09:03:28;5.97;;;3.80;;
5085;SDS011;4715;51.660;7.082;2022-12-26T09:05:50;7.27;;;2.57;;
5085;SDS011;4715;51.660;7.082;2022-12-26T09:08:12;3.40;;;3.17;;
5085;SDS011;4715;51.660;7.082;2022-12-26T09:10:34;3.90;;;3.50;;
5085;SDS011;4715;51.660;7.082;2022-12-26T09:12:56;3.40;;;3.10;;
5085;SDS011;4715;51.660;7.082;2022-12-26T09:15:17;6.07;;;3.77;;
5085;SDS011;4715;51.660;7.082;2022-12-26T09:17:39;5.03;;;3.67;;
5085;SDS011;4715;51.660;7.082;2022-12-26T09:20:03;4.33;;;3.93;;
5085;SDS011;4715;51.660;7.082;2022-12-26T09:22:25;4.33;;;4.03;;
5085;SDS011;4715;51.660;7.082;2022-12-26T09:25:05;4.40;;;3.43;;
5085;SDS011;4715;51.660;7.082;2022-12-26T09:27:27;4.27;;;3.87;;
5085;SDS011;4715;51.660;7.082;2022-12-26T09:29:52;13.53;;;4.17;;
5085;SDS011;4715;51.660;7.082;2022-12-26T09:32:14;5.40;;;3.37;;
5085;SDS011;4715;51.660;7.082;2022-12-26T09:34:37;5.00;;;3.57;;
5085;SDS011;4715;51.660;7.082;2022-12-26T09:37:00;5.20;;;3.73;;
5085;SDS011;4715;51.660;7.082;2022-12-26T09:39:22;4.57;;;4.27;;
5085;SDS011;4715;51.660;7.082;2022-12-26T09:41:48;3.90;;;3.60;;
5085;SDS011;4715;51.660;7.082;2022-12-26T09:44:21;3.50;;;2.70;;
5085;SDS011;4715;51.660;7.082;2022-12-26T09:46:47;2.90;;;2.53;;
5085;SDS011;4715;51.660;7.082;2022-12-26T09:49:16;10.80;;;3.03;;
5085;SDS011;4715;51.660;7.082;2022-12-26T09:51:42;3.27;;;3.07;;
5085;SDS011;4715;51.660;7.082;2022-12-26T09:54:10;3.37;;;2.20;;
5085;SDS011;4715;51.660;7.082;2022-12-26T09:56:38;2.77;;;2.60;;
5085;SDS011;4715;51.660;7.082;2022-12-26T09:59:01;2.77;;;2.20;;
5085;SDS011;4715;51.660;7.082;2022-12-26T10:01:27;3.33;;;2.73;;
5085;SDS011;4715;51.660;7.082;2022-12-26T10:03:53;5.20;;;2.73;;
5085;SDS011;4715;51.660;7.082;2022-12-26T10:06:17;3.60;;;2.40;;
5085;SDS011;4715;51.660;7.082;2022-12-26T10:11:43;2.90;;;2.60;;
5085;SDS011;4715;51.660;7.082;2022-12-26T10:14:15;4.00;;;2.73;;
5085;SDS011;4715;51.660;7.082;2022-12-26T10:16:48;2.40;;;2.20;;
5085;SDS011;4715;51.660;7.082;2022-12-26T10:19:20;3.00;;;2.30;;
5085;SDS011;4715;51.660;7.082;2022-12-26T10:21:57;2.40;;;1.90;;
5085;SDS011;4715;51.660;7.082;2022-12-26T10:24:29;2.80;;;2.00;;
5085;SDS011;4715;51.660;7.082;2022-12-26T10:27:00;7.67;;;2.63;;
5085;SDS011;4715;51.660;7.082;2022-12-26T10:29:25;2.60;;;2.13;;
5085;SDS011;4715;51.660;7.082;2022-12-26T10:31:51;3.20;;;2.13;;
5085;SDS011;4715;51.660;7.082;2022-12-26T10:34:18;2.83;;;1.90;;
5085;SDS011;4715;51.660;7.082;2022-12-26T10:36:44;2.80;;;2.33;;
5085;SDS011;4715;51.660;7.082;2022-12-26T10:39:13;3.70;;;2.17;;
5085;SDS011;4715;51.660;7.082;2022-12-26T10:41:39;4.03;;;1.90;;
5085;SDS011;4715;51.660;7.082;2022-12-26T10:44:08;2.13;;;2.03;;
5085;SDS011;4715;51.660;7.082;2022-12-26T10:46:45;1.40;;;1.30;;
5085;SDS011;4715;51.660;7.082;2022-12-26T10:49:16;2.77;;;1.83;;
5085;SDS011;4715;51.660;7.082;2022-12-26T10:51:43;3.80;;;2.00;;
5085;SDS011;4715;51.660;7.082;2022-12-26T10:54:09;4.13;;;2.17;;
5085;SDS011;4715;51.660;7.082;2022-12-26T10:56:35;2.10;;;2.00;;
5085;SDS011;4715;51.660;7.082;2022-12-26T10:58:59;3.73;;;2.73;;
5085;SDS011;4715;51.660;7.082;2022-12-26T11:01:40;3.03;;;2.07;;
5085;SDS011;4715;51.660;7.082;2022-12-26T11:04:13;2.70;;;2.33;;
5085;SDS011;4715;51.660;7.082;2022-12-26T11:06:40;3.67;;;2.27;;
5085;SDS011;4715;51.660;7.082;2022-12-26T11:09:06;4.40;;;2.23;;
5085;SDS011;4715;51.660;7.082;2022-12-26T11:11:44;6.40;;;2.13;;
5085;SDS011;4715;51.660;7.082;2022-12-26T11:14:25;4.33;;;1.90;;
5085;SDS011;4715;51.660;7.082;2022-12-26T11:16:54;8.83;;;1.80;;
5085;SDS011;4715;51.660;7.082;2022-12-26T11:19:25;3.50;;;2.40;;
5085;SDS011;4715;51.660;7.082;2022-12-26T11:21:47;3.77;;;2.23;;
5085;SDS011;4715;51.660;7.082;2022-12-26T11:24:15;1.73;;;1.63;;
5085;SDS011;4715;51.660;7.082;2022-12-26T11:26:39;6.50;;;1.87;;
5085;SDS011;4715;51.660;7.082;2022-12-26T11:29:04;1.70;;;1.60;;
5085;SDS011;4715;51.660;7.082;2022-12-26T11:31:27;3.13;;;1.93;;
5085;SDS011;4715;51.660;7.082;2022-12-26T11:33:52;2.50;;;1.63;;
5085;SDS011;4715;51.660;7.082;2022-12-26T11:36:17;2.80;;;1.83;;
5085;SDS011;4715;51.660;7.082;2022-12-26T11:38:47;3.67;;;2.93;;
5085;SDS011;4715;51.660;7.082;2022-12-26T11:41:13;2.10;;;1.47;;
5085;SDS011;4715;51.660;7.082;2022-12-26T11:43:51;2.37;;;1.60;;
5085;SDS011;4715;51.660;7.082;2022-12-26T11:46:16;3.23;;;1.77;;
5085;SDS011;4715;51.660;7.082;2022-12-26T11:48:38;1.30;;;1.20;;
5085;SDS011;4715;51.660;7.082;2022-12-26T11:51:04;3.33;;;1.40;;
5085;SDS011;4715;51.660;7.082;2022-12-26T11:53:29;3.20;;;1.40;;
5085;SDS011;4715;51.660;7.082;2022-12-26T11:55:58;1.10;;;1.10;;
5085;SDS011;4715;51.660;7.082;2022-12-26T11:58:21;3.67;;;1.30;;
5085;SDS011;4715;51.660;7.082;2022-12-26T12:03:38;1.50;;;1.40;;
5085;SDS011;4715;51.660;7.082;2022-12-26T12:06:05;2.53;;;1.37;;
5085;SDS011;4715;51.660;7.082;2022-12-26T12:08:49;2.10;;;1.50;;
5085;SDS011;4715;51.660;7.082;2022-12-26T12:11:20;2.50;;;1.43;;
5085;SDS011;4715;51.660;7.082;2022-12-26T12:13:55;2.20;;;1.30;;
5085;SDS011;4715;51.660;7.082;2022-12-26T12:16:31;3.97;;;1.33;;
5085;SDS011;4715;51.660;7.082;2022-12-26T12:19:02;2.40;;;1.30;;
5085;SDS011;4715;51.660;7.082;2022-12-26T12:21:38;1.73;;;1.30;;
5085;SDS011;4715;51.660;7.082;2022-12-26T12:26:53;3.87;;;2.73;;
5085;SDS011;4715;51.660;7.082;2022-12-26T12:29:23;6.23;;;1.70;;
5085;SDS011;4715;51.660;7.082;2022-12-26T12:31:57;2.83;;;1.40;;
5085;SDS011;4715;51.660;7.082;2022-12-26T12:34:30;1.83;;;1.63;;
5085;SDS011;4715;51.660;7.082;2022-12-26T12:37:16;5.27;;;1.47;;
5085;SDS011;4715;51.660;7.082;2022-12-26T12:39:53;3.73;;;1.67;;
5085;SDS011;4715;51.660;7.082;2022-12-26T12:42:28;2.53;;;2.17;;
5085;SDS011;4715;51.660;7.082;2022-12-26T12:47:52;4.70;;;1.90;;
5085;SDS011;4715;51.660;7.082;2022-12-26T12:50:24;2.13;;;1.80;;
5085;SDS011;4715;51.660;7.082;2022-12-26T12:53:08;3.17;;;1.90;;
5085;SDS011;4715;51.660;7.082;2022-12-26T12:55:42;5.70;;;2.70;;
5085;SDS011;4715;51.660;7.082;2022-12-26T12:58:18;5.53;;;3.67;;
5085;SDS011;4715;51.660;7.082;2022-12-26T13:00:43;7.10;;;2.63;;
5085;SDS011;4715;51.660;7.082;2022-12-26T13:03:10;2.53;;;2.33;;
5085;SDS011;4715;51.660;7.082;2022-12-26T13:05:39;2.60;;;2.20;;
5085;SDS011;4715;51.660;7.082;2022-12-26T13:08:08;6.50;;;2.17;;
5085;SDS011;4715;51.660;7.082;2022-12-26T13:10:36;2.00;;;1.90;;
5085;SDS011;4715;51.660;7.082;2022-12-26T13:13:08;4.00;;;2.43;;
5085;SDS011;4715;51.660;7.082;2022-12-26T13:15:39;3.27;;;2.10;;
5085;SDS011;4715;51.660;7.082;2022-12-26T13:18:05;2.20;;;1.93;;
5085;SDS011;4715;51.660;7.082;2022-12-26T13:20:32;2.13;;;1.83;;
5085;SDS011;4715;51.660;7.082;2022-12-26T13:22:59;6.20;;;2.33;;
5085;SDS011;4715;51.660;7.082;2022-12-26T13:25:44;3.90;;;2.10;;
5085;SDS011;4715;51.660;7.082;2022-12-26T13:28:11;3.07;;;2.50;;
5085;SDS011;4715;51.660;7.082;2022-12-26T13:30:37;5.50;;;2.53;;
5085;SDS011;4715;51.660;7.082;2022-12-26T13:33:02;4.57;;;3.00;;
5085;SDS011;4715;51.660;7.082;2022-12-26T13:38:13;3.33;;;2.50;;
5085;SDS011;4715;51.660;7.082;2022-12-26T13:40:36;12.30;;;3.13;;
5085;SDS011;4715;51.660;7.082;2022-12-26T13:43:08;5.23;;;3.00;;
5085;SDS011;4715;51.660;7.082;2022-12-26T13:45:58;6.50;;;2.77;;
5085;SDS011;4715;51.660;7.082;2022-12-26T13:54:07;3.17;;;2.10;;
5085;SDS011;4715;51.660;7.082;2022-12-26T13:59:31;2.50;;;1.73;;
5085;SDS011;4715;51.660;7.082;2022-12-26T14:02:01;5.37;;;2.10;;
5085;SDS011;4715;51.660;7.082;2022-12-26T14:04:39;9.10;;;2.30;;
5085;SDS011;4715;51.660;7.082;2022-12-26T14:07:13;3.50;;;1.73;;
5085;SDS011;4715;51.660;7.082;2022-12-26T14:09:55;2.90;;;1.30;;
5085;SDS011;4715;51.660;7.082;2022-12-26T14:15:20;2.47;;;1.50;;
5085;SDS011;4715;51.660;7.082;2022-12-26T14:17:52;3.57;;;2.20;;
5085;SDS011;4715;51.660;7.082;2022-12-26T14:20:25;3.10;;;1.90;;
5085;SDS011;4715;51.660;7.082;2022-12-26T14:22:59;2.07;;;1.80;;
5085;SDS011;4715;51.660;7.082;2022-12-26T14:25:26;8.43;;;1.87;;
5085;SDS011;4715;51.660;7.082;2022-12-26T14:27:54;4.20;;;1.80;;
5085;SDS011;4715;51.660;7.082;2022-12-26T14:30:25;2.83;;;1.63;;
5085;SDS011;4715;51.660;7.082;2022-12-26T14:32:59;5.63;;;2.07;;
5085;SDS011;4715;51.660;7.082;2022-12-26T14:35:34;3.00;;;1.73;;
5085;SDS011;4715;51.660;7.082;2022-12-26T14:38:03;3.20;;;2.13;;
5085;SDS011;4715;51.660;7.082;2022-12-26T14:40:38;6.67;;;2.10;;
5085;SDS011;4715;51.660;7.082;2022-12-26T14:43:31;2.27;;;1.80;;
5085;SDS011;4715;51.660;7.082;2022-12-26T14:45:58;11.20;;;2.20;;
5085;SDS011;4715;51.660;7.082;2022-12-26T14:48:41;2.13;;;1.60;;
5085;SDS011;4715;51.660;7.082;2022-12-26T14:54:08;4.37;;;1.87;;
5085;SDS011;4715;51.660;7.082;2022-12-26T14:56:58;2.07;;;1.97;;
5085;SDS011;4715;51.660;7.082;2022-12-26T14:59:28;4.67;;;1.80;;
5085;SDS011;4715;51.660;7.082;2022-12-26T15:02:00;2.27;;;2.07;;
5085;SDS011;4715;51.660;7.082;2022-12-26T15:10:29;2.00;;;1.73;;
5085;SDS011;4715;51.660;7.082;2022-12-26T15:13:32;4.20;;;2.60;;
5085;SDS011;4715;51.660;7.082;2022-12-26T15:16:15;5.83;;;2.07;;
5085;SDS011;4715;51.660;7.082;2022-12-26T15:19:06;4.77;;;2.20;;
5085;SDS011;4715;51.660;7.082;2022-12-26T15:22:23;5.60;;;1.93;;
5085;SDS011;4715;51.660;7.082;2022-12-26T15:25:13;4.33;;;1.70;;
5085;SDS011;4715;51.660;7.082;2022-12-26T15:28:14;7.70;;;2.87;;
5085;SDS011;4715;51.660;7.082;2022-12-26T15:31:05;2.57;;;2.37;;
5085;SDS011;4715;51.660;7.082;2022-12-26T15:33:39;3.97;;;2.40;;
5085;SDS011;4715;51.660;7.082;2022-12-26T15:36:13;3.83;;;2.50;;
5085;SDS011;4715;51.660;7.082;2022-12-26T15:38:42;2.93;;;2.73;;
5085;SDS011;4715;51.660;7.082;2022-12-26T15:41:11;4.90;;;2.23;;
5085;SDS011;4715;51.660;7.082;2022-12-26T15:43:38;2.60;;;2.40;;
5085;SDS011;4715;51.660;7.082;2022-12-26T15:46:12;3.70;;;1.87;;
5085;SDS011;4715;51.660;7.082;2022-12-26T15:48:43;5.10;;;2.27;;
5085;SDS011;4715;51.660;7.082;2022-12-26T15:51:16;4.93;;;2.80;;
5085;SDS011;4715;51.660;7.082;2022-12-26T15:53:49;4.23;;;2.07;;
5085;SDS011;4715;51.660;7.082;2022-12-26T15:56:26;2.53;;;2.33;;
5085;SDS011;4715;51.660;7.082;2022-12-26T15:59:10;7.50;;;2.67;;
5085;SDS011;4715;51.660;7.082;2022-12-26T16:01:52;3.87;;;2.53;;
5085;SDS011;4715;51.660;7.082;2022-12-26T16:04:16;4.30;;;3.50;;